Time;durP1;ratioP1;P1;durP2;ratioP2;P2;SDS_P1;SDS_P2;PMS_P1;PMS_P2;Temp;Humidity;BMP_temperature;BMP_pressure;BME280_temperature;BME280_humidity;BME280_pressure;Samples;Min_cycle;Max_cycle;Signal;HPM_P1;HPM_P2
2021/09/25 00:01:58;;;;;;;7.53;3.38;;;17.30;99.90;;;;;;4190320;28;20028;-74
2021/09/25 00:03:59;;;;;;;8.45;3.95;;;17.30;99.90;;;;;;4177920;28;20036;-74
2021/09/25 00:05:59;;;;;;;5.03;3.13;;;17.30;99.90;;;;;;4174335;28;20091;-74
2021/09/25 00:08:01;;;;;;;4.90;3.65;;;17.30;99.90;;;;;;4192173;28;20650;-74
2021/09/25 00:10:03;;;;;;;5.82;3.70;;;17.30;99.90;;;;;;4182168;28;20679;-74
2021/09/25 00:12:04;;;;;;;4.33;3.23;;;17.30;99.90;;;;;;4175680;28;20037;-74
2021/09/25 00:14:04;;;;;;;6.38;3.00;;;17.30;99.90;;;;;;4178459;28;20118;-74
2021/09/25 00:16:07;;;;;;;4.35;3.25;;;17.30;99.90;;;;;;4177950;28;20036;-74
2021/09/25 00:18:08;;;;;;;6.28;3.22;;;17.30;99.90;;;;;;4173226;28;20037;-73
2021/09/25 00:20:09;;;;;;;3.88;3.05;;;17.30;99.90;;;;;;4179071;28;20033;-74
2021/09/25 00:22:10;;;;;;;3.92;3.28;;;17.30;99.90;;;;;;4174762;28;20052;-74
2021/09/25 00:24:11;;;;;;;6.68;3.40;;;17.30;99.90;;;;;;4151368;28;20473;-74
2021/09/25 00:26:11;;;;;;;4.68;3.38;;;17.20;99.90;;;;;;4174368;28;20096;-74
2021/09/25 00:28:12;;;;;;;4.72;3.80;;;17.20;99.90;;;;;;4172585;28;20068;-74
2021/09/25 00:30:13;;;;;;;4.05;3.28;;;17.20;99.90;;;;;;4179776;28;20477;-74
2021/09/25 00:32:14;;;;;;;5.10;3.25;;;17.10;99.90;;;;;;4177612;28;20047;-74
2021/09/25 00:34:15;;;;;;;4.40;3.50;;;17.10;99.90;;;;;;4173352;28;20033;-74
2021/09/25 00:36:16;;;;;;;4.80;3.70;;;17.10;99.90;;;;;;4173957;28;20040;-74
2021/09/25 00:38:17;;;;;;;6.45;3.83;;;17.10;99.90;;;;;;4179498;28;20041;-74
2021/09/25 00:40:18;;;;;;;5.85;3.22;;;17.10;99.90;;;;;;4177593;28;20048;-74
2021/09/25 00:42:19;;;;;;;5.15;3.17;;;17.00;99.90;;;;;;4173546;28;20045;-74
2021/09/25 00:44:21;;;;;;;4.82;3.67;;;17.00;99.90;;;;;;4182138;28;20045;-74
2021/09/25 00:46:22;;;;;;;5.28;3.45;;;16.90;99.90;;;;;;4172223;28;20055;-74
2021/09/25 00:48:23;;;;;;;4.72;3.67;;;16.90;99.90;;;;;;4178596;28;20489;-74
2021/09/25 00:50:26;;;;;;;4.97;3.67;;;16.90;99.90;;;;;;4176030;28;20071;-74
2021/09/25 00:52:27;;;;;;;5.32;3.47;;;16.90;99.90;;;;;;4170010;28;20055;-74
2021/09/25 00:54:27;;;;;;;4.78;3.63;;;16.90;99.90;;;;;;4175428;28;20049;-74
2021/09/25 00:56:28;;;;;;;5.38;3.50;;;16.90;99.90;;;;;;4171173;28;20060;-74
2021/09/25 00:58:29;;;;;;;4.53;3.38;;;16.90;99.90;;;;;;4179323;28;20049;-74
2021/09/25 01:00:31;;;;;;;4.70;3.47;;;16.90;99.90;;;;;;4173016;28;20036;-74
2021/09/25 01:02:35;;;;;;;4.43;3.40;;;16.90;99.90;;;;;;4176799;28;20040;-74
2021/09/25 01:04:35;;;;;;;5.35;3.60;;;16.90;99.90;;;;;;4161832;28;20037;-74
2021/09/25 01:06:36;;;;;;;5.35;3.25;;;17.00;99.90;;;;;;4173377;28;20048;-74
2021/09/25 01:08:37;;;;;;;8.68;3.28;;;16.90;99.90;;;;;;4177865;28;20052;-74
2021/09/25 01:10:38;;;;;;;4.25;3.05;;;16.90;99.90;;;;;;4178082;28;20032;-74
2021/09/25 01:12:39;;;;;;;5.80;3.60;;;16.90;99.90;;;;;;4179922;28;20057;-74
2021/09/25 01:14:40;;;;;;;7.70;4.00;;;16.90;99.90;;;;;;4175713;28;20037;-74
2021/09/25 01:16:41;;;;;;;5.18;3.30;;;16.90;99.90;;;;;;4175589;28;20041;-74
2021/09/25 01:18:42;;;;;;;4.88;3.70;;;16.80;99.90;;;;;;4176399;28;20040;-74
2021/09/25 01:20:42;;;;;;;5.00;3.38;;;16.80;99.90;;;;;;4175487;28;20052;-74
2021/09/25 01:22:43;;;;;;;3.72;3.33;;;16.80;99.90;;;;;;4170101;28;20040;-74
2021/09/25 01:24:44;;;;;;;5.53;3.60;;;16.80;99.90;;;;;;4161597;28;20065;-74
2021/09/25 01:26:45;;;;;;;6.35;3.65;;;16.80;99.90;;;;;;4153220;28;20081;-74
2021/09/25 01:28:47;;;;;;;6.13;3.83;;;16.80;99.90;;;;;;4154990;28;20129;-74
2021/09/25 01:30:47;;;;;;;4.57;3.42;;;16.70;99.90;;;;;;4153104;28;20124;-74
2021/09/25 01:32:50;;;;;;;5.47;3.88;;;16.70;99.90;;;;;;4155986;28;20049;-74
2021/09/25 01:34:50;;;;;;;4.90;3.80;;;16.70;99.90;;;;;;4153888;28;20045;-74
2021/09/25 01:36:51;;;;;;;5.95;4.03;;;16.70;99.90;;;;;;4154020;28;20029;-74
2021/09/25 01:38:52;;;;;;;4.78;3.80;;;16.70;99.90;;;;;;4134752;28;20621;-74
2021/09/25 01:40:52;;;;;;;6.07;3.60;;;16.60;99.90;;;;;;4152930;28;20064;-74
2021/09/25 01:42:53;;;;;;;8.88;3.42;;;16.60;99.90;;;;;;4150156;28;20092;-74
2021/09/25 01:44:54;;;;;;;5.80;4.00;;;16.60;99.90;;;;;;4150471;28;20521;-74
2021/09/25 01:46:56;;;;;;;7.28;4.13;;;16.60;99.90;;;;;;4153782;28;20432;-74
2021/09/25 01:48:57;;;;;;;5.65;3.80;;;16.60;99.90;;;;;;4137530;28;20038;-74
2021/09/25 01:50:57;;;;;;;4.75;3.30;;;16.60;99.90;;;;;;4150434;28;20045;-74
2021/09/25 01:52:58;;;;;;;4.70;3.40;;;16.60;99.90;;;;;;4151554;28;20038;-74
2021/09/25 01:54:59;;;;;;;6.03;4.20;;;16.60;99.90;;;;;;4156289;28;20087;-74
2021/09/25 01:56:59;;;;;;;5.50;4.05;;;16.60;99.90;;;;;;4151651;28;20052;-74
2021/09/25 01:59:00;;;;;;;6.28;4.50;;;16.60;99.90;;;;;;4151800;28;20687;-74
2021/09/25 02:01:01;;;;;;;5.57;3.97;;;16.60;99.90;;;;;;4152780;28;20049;-74
2021/09/25 02:03:06;;;;;;;5.78;4.53;;;16.60;99.90;;;;;;4153654;28;20496;-74
2021/09/25 02:05:07;;;;;;;6.13;4.25;;;16.60;99.90;;;;;;4153901;28;20132;-74
2021/09/25 02:07:08;;;;;;;6.25;4.55;;;16.50;99.90;;;;;;4153401;28;20041;-75
2021/09/25 02:09:08;;;;;;;6.70;4.30;;;16.50;99.90;;;;;;4155677;28;20033;-74
2021/09/25 02:11:09;;;;;;;5.38;4.28;;;16.50;99.90;;;;;;4151055;28;20066;-74
2021/09/25 02:13:10;;;;;;;8.75;5.22;;;16.50;99.90;;;;;;4152010;28;20049;-74
2021/09/25 02:15:11;;;;;;;6.07;4.22;;;16.50;99.90;;;;;;4151802;28;20698;-74
2021/09/25 02:17:11;;;;;;;7.18;4.70;;;16.50;99.90;;;;;;4154285;28;20393;-74
2021/09/25 02:19:12;;;;;;;7.43;5.10;;;16.50;99.90;;;;;;4156320;28;20489;-74
2021/09/25 02:21:12;;;;;;;13.25;4.53;;;16.50;99.90;;;;;;4151778;28;20065;-74
2021/09/25 02:23:13;;;;;;;7.65;4.63;;;16.50;99.90;;;;;;4151579;28;20033;-74
2021/09/25 02:25:14;;;;;;;7.82;5.10;;;16.50;99.90;;;;;;4155390;28;20068;-74
2021/09/25 02:27:14;;;;;;;7.55;4.93;;;16.50;99.90;;;;;;4156975;28;20436;-74
2021/09/25 02:29:15;;;;;;;9.88;5.32;;;16.40;99.90;;;;;;4154013;28;20114;-74
2021/09/25 02:31:19;;;;;;;6.70;4.72;;;16.40;99.90;;;;;;4155624;28;20184;-74
2021/09/25 02:33:20;;;;;;;6.68;4.60;;;16.40;99.90;;;;;;4155448;28;20045;-74
2021/09/25 02:35:21;;;;;;;7.63;5.13;;;16.40;99.90;;;;;;4155410;28;20544;-74
2021/09/25 02:37:22;;;;;;;8.43;4.90;;;16.40;99.90;;;;;;4158573;28;20025;-74
2021/09/25 02:39:24;;;;;;;8.00;5.10;;;16.40;99.90;;;;;;4153130;28;20100;-74
2021/09/25 02:41:24;;;;;;;7.97;5.40;;;16.40;99.90;;;;;;4154699;28;20049;-75
2021/09/25 02:43:25;;;;;;;9.80;5.80;;;16.40;99.90;;;;;;4156957;28;20114;-74
2021/09/25 02:45:26;;;;;;;6.25;4.85;;;16.40;99.90;;;;;;4158235;28;20038;-74
2021/09/25 02:47:26;;;;;;;6.80;5.00;;;16.40;99.90;;;;;;4154559;28;20045;-74
2021/09/25 02:49:27;;;;;;;7.13;4.88;;;16.40;99.90;;;;;;4159257;28;20033;-74
2021/09/25 02:51:27;;;;;;;8.80;5.25;;;16.40;99.90;;;;;;4156767;28;20789;-74
2021/09/25 02:53:29;;;;;;;8.23;4.88;;;16.40;99.90;;;;;;4157546;28;20443;-74
2021/09/25 02:55:29;;;;;;;7.63;5.35;;;16.40;99.90;;;;;;4152943;28;20038;-74
2021/09/25 02:57:30;;;;;;;7.28;4.57;;;16.40;99.90;;;;;;4152310;28;20033;-74
2021/09/25 02:59:30;;;;;;;8.05;5.10;;;16.40;99.90;;;;;;4152484;28;20084;-74
2021/09/25 03:01:32;;;;;;;6.95;4.63;;;16.40;99.90;;;;;;4156119;28;20109;-74
2021/09/25 03:03:32;;;;;;;7.90;5.13;;;16.40;99.90;;;;;;4151824;28;20026;-74
2021/09/25 03:05:33;;;;;;;6.43;4.55;;;16.40;99.90;;;;;;4156009;28;20083;-74
2021/09/25 03:07:34;;;;;;;8.52;4.82;;;16.40;99.90;;;;;;4155861;28;20053;-74
2021/09/25 03:09:35;;;;;;;7.72;4.70;;;16.40;99.90;;;;;;4152539;28;20115;-74
2021/09/25 03:11:36;;;;;;;9.07;5.47;;;16.40;99.90;;;;;;4155114;28;20041;-74
2021/09/25 03:13:36;;;;;;;8.18;5.35;;;16.40;99.90;;;;;;4155801;28;20112;-74
2021/09/25 03:15:37;;;;;;;6.45;4.55;;;16.40;99.90;;;;;;4151146;28;20049;-74
2021/09/25 03:17:38;;;;;;;7.93;5.00;;;16.30;99.90;;;;;;4154283;28;20037;-74
2021/09/25 03:19:38;;;;;;;8.82;5.35;;;16.40;99.90;;;;;;4157057;28;20029;-74
2021/09/25 03:21:39;;;;;;;7.90;5.40;;;16.30;99.90;;;;;;4151747;28;20088;-74
2021/09/25 03:23:40;;;;;;;10.57;5.40;;;16.30;99.90;;;;;;4156135;28;20034;-74
2021/09/25 03:25:40;;;;;;;7.53;5.45;;;16.20;99.90;;;;;;4154530;28;20030;-74
2021/09/25 03:27:42;;;;;;;8.10;5.30;;;16.30;99.90;;;;;;4156603;28;20050;-74
2021/09/25 03:29:42;;;;;;;9.45;5.30;;;16.30;99.90;;;;;;4157878;28;20072;-74
2021/09/25 03:31:43;;;;;;;7.82;4.85;;;16.20;99.90;;;;;;4155975;28;20401;-74
2021/09/25 03:33:44;;;;;;;8.57;5.43;;;16.20;99.90;;;;;;4152930;28;20061;-74
2021/09/25 03:35:47;;;;;;;6.28;4.50;;;16.30;99.90;;;;;;4153390;28;20064;-74
2021/09/25 03:37:48;;;;;;;7.50;4.53;;;16.30;99.90;;;;;;4149018;28;20064;-74
2021/09/25 03:39:48;;;;;;;6.10;4.72;;;16.30;99.90;;;;;;4156594;28;20034;-74
2021/09/25 03:41:50;;;;;;;9.20;5.57;;;16.30;99.90;;;;;;4152585;28;20029;-74
2021/09/25 03:43:50;;;;;;;8.13;4.82;;;16.30;99.90;;;;;;4151514;28;20037;-74
2021/09/25 03:45:51;;;;;;;7.75;5.20;;;16.30;99.90;;;;;;4154344;28;20037;-74
2021/09/25 03:47:57;;;;;;;7.05;4.70;;;16.30;99.90;;;;;;4151594;28;20139;-74
2021/09/25 03:49:57;;;;;;;10.27;5.85;;;16.40;99.90;;;;;;4154176;28;20037;-74
2021/09/25 03:51:58;;;;;;;7.80;4.93;;;16.30;99.90;;;;;;4155031;28;20046;-74
2021/09/25 03:53:59;;;;;;;10.27;5.53;;;16.40;99.90;;;;;;4155274;28;20109;-74
2021/09/25 03:56:00;;;;;;;9.55;5.30;;;16.30;99.90;;;;;;4134760;28;20037;-74
2021/09/25 03:58:00;;;;;;;7.38;5.50;;;16.30;99.90;;;;;;4155886;28;20454;-74
2021/09/25 04:00:02;;;;;;;8.80;5.65;;;16.30;99.90;;;;;;4154218;28;20049;-74
2021/09/25 04:02:03;;;;;;;9.32;6.05;;;16.30;99.90;;;;;;4150240;28;20049;-73
2021/09/25 04:04:04;;;;;;;8.43;5.57;;;16.30;99.90;;;;;;4154582;28;20037;-74
2021/09/25 04:06:04;;;;;;;8.20;5.30;;;16.30;99.90;;;;;;4156315;28;20044;-75
2021/09/25 04:08:06;;;;;;;9.85;5.82;;;16.30;99.90;;;;;;4154980;28;20041;-74
2021/09/25 04:10:07;;;;;;;9.77;5.18;;;16.30;99.90;;;;;;4154332;28;20567;-75
2021/09/25 04:12:08;;;;;;;9.25;5.60;;;16.30;99.90;;;;;;4155248;28;20670;-74
2021/09/25 04:14:09;;;;;;;8.48;5.47;;;16.30;99.90;;;;;;4152942;28;20041;-74
2021/09/25 04:16:09;;;;;;;8.52;4.82;;;16.30;99.90;;;;;;4154958;28;20053;-74
2021/09/25 04:18:10;;;;;;;8.52;5.38;;;16.30;99.90;;;;;;4151992;28;20045;-74
2021/09/25 04:20:11;;;;;;;9.60;5.95;;;16.30;99.90;;;;;;4154164;28;20362;-74
2021/09/25 04:22:12;;;;;;;9.73;5.57;;;16.30;99.90;;;;;;4149880;28;20135;-74
2021/09/25 04:24:12;;;;;;;11.02;6.20;;;16.30;99.90;;;;;;4154493;28;20526;-74
2021/09/25 04:26:16;;;;;;;8.82;5.60;;;16.30;99.90;;;;;;4155037;28;20125;-74
2021/09/25 04:28:16;;;;;;;9.05;5.80;;;16.30;99.90;;;;;;4156317;28;20124;-75
2021/09/25 04:30:18;;;;;;;9.18;5.10;;;16.40;99.90;;;;;;4155083;28;20559;-74
2021/09/25 04:32:18;;;;;;;8.77;5.40;;;16.40;99.90;;;;;;4155546;28;20042;-74
2021/09/25 04:34:19;;;;;;;8.30;5.25;;;16.40;99.90;;;;;;4151463;28;20036;-74
2021/09/25 04:36:19;;;;;;;8.77;5.70;;;16.40;99.90;;;;;;4153409;28;20044;-74
2021/09/25 04:38:22;;;;;;;9.25;5.78;;;16.40;99.90;;;;;;4153846;28;20557;-74
2021/09/25 04:40:24;;;;;;;8.40;5.60;;;16.40;99.90;;;;;;4156075;28;20441;-74
2021/09/25 04:42:25;;;;;;;8.07;5.18;;;16.40;99.90;;;;;;4154686;28;20126;-74
2021/09/25 04:44:25;;;;;;;9.57;5.78;;;16.40;99.90;;;;;;4152496;28;20045;-74
2021/09/25 04:46:26;;;;;;;8.73;5.50;;;16.40;99.90;;;;;;4155800;28;20041;-74
2021/09/25 04:48:26;;;;;;;7.63;5.68;;;16.40;99.90;;;;;;4154839;28;20481;-74
2021/09/25 04:50:30;;;;;;;9.30;5.60;;;16.40;99.90;;;;;;4150462;28;20038;-75
2021/09/25 04:52:31;;;;;;;9.02;5.53;;;16.40;99.90;;;;;;4157307;28;20033;-75
2021/09/25 04:54:32;;;;;;;9.00;6.18;;;16.50;99.90;;;;;;4157240;28;20041;-74
2021/09/25 04:56:33;;;;;;;9.85;5.70;;;16.40;99.90;;;;;;4156935;28;20045;-74
2021/09/25 04:58:34;;;;;;;11.52;6.47;;;16.40;99.90;;;;;;4154378;28;20029;-74
2021/09/25 05:00:36;;;;;;;9.65;6.15;;;16.40;99.90;;;;;;4156087;28;20087;-75
2021/09/25 05:02:36;;;;;;;9.52;5.82;;;16.40;99.90;;;;;;4157468;28;20034;-74
2021/09/25 05:04:37;;;;;;;11.20;6.22;;;16.40;99.90;;;;;;4154872;28;20111;-74
2021/09/25 05:06:38;;;;;;;10.85;6.63;;;16.40;99.90;;;;;;4155902;28;20149;-74
2021/09/25 05:08:38;;;;;;;10.38;5.95;;;16.40;99.90;;;;;;4155894;28;20041;-74
2021/09/25 05:10:40;;;;;;;9.45;6.20;;;16.40;99.90;;;;;;4156240;28;20045;-75
2021/09/25 05:12:41;;;;;;;10.05;6.00;;;16.40;99.90;;;;;;4155386;28;20497;-74
2021/09/25 05:14:41;;;;;;;9.88;6.28;;;16.50;99.90;;;;;;4155895;28;20046;-74
2021/09/25 05:16:42;;;;;;;9.88;5.95;;;16.40;99.90;;;;;;4153730;28;20045;-75
2021/09/25 05:18:43;;;;;;;10.43;6.20;;;16.50;99.90;;;;;;4153023;28;20037;-74
2021/09/25 05:20:43;;;;;;;9.23;6.30;;;16.50;99.90;;;;;;4155680;28;20043;-74
2021/09/25 05:22:44;;;;;;;9.05;6.70;;;16.40;99.90;;;;;;4143808;28;20886;-76
2021/09/25 05:24:45;;;;;;;10.85;6.63;;;16.50;99.90;;;;;;4153011;28;20049;-75
2021/09/25 05:26:47;;;;;;;12.15;6.80;;;16.40;99.90;;;;;;4155209;28;20025;-76
2021/09/25 05:28:47;;;;;;;11.10;7.07;;;16.40;99.90;;;;;;4151683;28;20496;-76
2021/09/25 05:30:48;;;;;;;9.40;6.38;;;16.40;99.90;;;;;;4153479;28;20103;-76
2021/09/25 05:32:49;;;;;;;11.43;6.78;;;16.40;99.90;;;;;;4154094;28;20041;-76
2021/09/25 05:34:49;;;;;;;8.77;6.10;;;16.50;99.90;;;;;;4152905;28;20458;-76
2021/09/25 05:36:50;;;;;;;9.50;6.05;;;16.50;99.90;;;;;;4160998;28;20120;-76
2021/09/25 05:38:51;;;;;;;10.77;6.53;;;16.50;99.90;;;;;;4173763;28;20033;-76
2021/09/25 05:40:52;;;;;;;10.45;6.60;;;16.50;99.90;;;;;;4174023;28;20045;-76
2021/09/25 05:42:52;;;;;;;8.60;5.85;;;16.40;99.90;;;;;;4172630;28;20409;-76
2021/09/25 05:44:54;;;;;;;8.88;5.85;;;16.50;99.90;;;;;;4175832;28;20032;-76
2021/09/25 05:46:55;;;;;;;9.00;6.10;;;16.50;99.90;;;;;;4159228;28;20051;-76
2021/09/25 05:48:55;;;;;;;12.07;7.70;;;16.50;99.90;;;;;;4175717;28;20040;-76
2021/09/25 05:50:56;;;;;;;9.68;6.57;;;16.50;99.90;;;;;;4175908;28;20044;-75
2021/09/25 05:52:56;;;;;;;10.60;6.50;;;16.40;99.90;;;;;;4175577;28;20041;-75
2021/09/25 05:54:57;;;;;;;9.50;7.07;;;16.50;99.90;;;;;;4172633;28;20037;-75
2021/09/25 05:56:57;;;;;;;10.95;6.55;;;16.50;99.90;;;;;;4178323;28;20044;-76
2021/09/25 05:58:58;;;;;;;13.18;7.13;;;16.40;99.90;;;;;;4170823;28;20461;-76
2021/09/25 06:00:59;;;;;;;10.05;6.55;;;16.50;99.90;;;;;;4176939;28;20041;-76
2021/09/25 06:03:01;;;;;;;10.20;7.22;;;16.50;99.90;;;;;;4175987;28;20400;-75
2021/09/25 06:05:03;;;;;;;11.48;6.68;;;16.50;99.90;;;;;;4175628;28;20060;-76
2021/09/25 06:07:05;;;;;;;13.95;7.57;;;16.40;99.90;;;;;;4176814;28;20465;-76
2021/09/25 06:09:06;;;;;;;11.25;7.13;;;16.40;99.90;;;;;;4161696;28;20041;-75
2021/09/25 06:11:06;;;;;;;12.52;7.38;;;16.40;99.90;;;;;;4175507;28;20521;-76
2021/09/25 06:13:10;;;;;;;13.50;8.32;;;16.40;99.90;;;;;;4179059;28;20071;-76
2021/09/25 06:15:11;;;;;;;11.32;7.68;;;16.30;99.90;;;;;;4159803;28;20116;-76
2021/09/25 06:17:12;;;;;;;17.05;8.43;;;16.40;99.90;;;;;;4173989;28;20994;-76
2021/09/25 06:19:14;;;;;;;13.90;7.50;;;16.30;99.90;;;;;;4178520;28;20038;-76
2021/09/25 06:21:14;;;;;;;13.27;8.15;;;16.30;99.90;;;;;;4177090;28;20025;-75
2021/09/25 06:23:15;;;;;;;15.20;8.90;;;16.30;99.90;;;;;;4172758;28;20052;-76
2021/09/25 06:25:16;;;;;;;13.30;8.27;;;16.30;99.90;;;;;;4174297;28;20235;-76
2021/09/25 06:27:16;;;;;;;13.85;8.30;;;16.30;99.90;;;;;;4173297;28;20045;-75
2021/09/25 06:29:17;;;;;;;16.17;8.43;;;16.30;99.90;;;;;;4174400;28;20128;-75
2021/09/25 06:31:21;;;;;;;10.88;7.53;;;16.30;99.90;;;;;;4176810;28;20044;-75
2021/09/25 06:33:22;;;;;;;16.98;7.55;;;16.30;99.90;;;;;;4176147;28;20092;-75
2021/09/25 06:35:22;;;;;;;15.07;8.50;;;16.30;99.90;;;;;;4179939;28;20043;-75
2021/09/25 06:37:23;;;;;;;11.80;7.38;;;16.30;99.90;;;;;;4179608;28;20029;-76
2021/09/25 06:39:24;;;;;;;11.68;7.78;;;16.30;99.90;;;;;;4176998;28;20369;-76
2021/09/25 06:41:25;;;;;;;11.15;7.57;;;16.30;99.90;;;;;;4176995;28;20037;-75
2021/09/25 06:43:25;;;;;;;14.18;7.80;;;16.30;99.90;;;;;;4174036;28;20041;-76
2021/09/25 06:45:32;;;;;;;14.18;8.65;;;16.40;99.90;;;;;;4176771;28;20542;-75
2021/09/25 06:47:33;;;;;;;13.73;8.40;;;16.40;99.90;;;;;;4155074;28;20040;-76
2021/09/25 06:49:34;;;;;;;17.35;9.02;;;16.40;99.90;;;;;;4156859;28;20057;-76
2021/09/25 06:51:34;;;;;;;13.52;8.25;;;16.40;99.90;;;;;;4152503;28;20488;-76
2021/09/25 06:53:35;;;;;;;14.55;8.60;;;16.40;99.90;;;;;;4155809;28;20087;-76
2021/09/25 06:55:36;;;;;;;10.18;7.20;;;16.40;99.90;;;;;;4156823;28;20060;-76
2021/09/25 06:57:36;;;;;;;14.52;8.80;;;16.40;99.90;;;;;;4157411;28;20040;-75
2021/09/25 06:59:38;;;;;;;12.80;7.43;;;16.40;99.90;;;;;;4172973;28;20413;-76
2021/09/25 07:01:38;;;;;;;12.13;7.53;;;16.40;99.90;;;;;;4171108;28;20044;-76
2021/09/25 07:03:39;;;;;;;13.73;8.75;;;16.40;99.90;;;;;;4174706;28;20041;-76
2021/09/25 07:05:40;;;;;;;14.00;8.82;;;16.50;99.90;;;;;;4172525;28;20033;-76
2021/09/25 07:07:41;;;;;;;16.80;9.48;;;16.50;99.90;;;;;;4176755;28;20154;-76
2021/09/25 07:09:42;;;;;;;15.27;8.77;;;16.50;99.90;;;;;;4174725;28;20124;-76
2021/09/25 07:11:43;;;;;;;13.32;8.25;;;16.50;99.90;;;;;;4173644;28;20043;-76
2021/09/25 07:13:43;;;;;;;15.45;8.38;;;16.50;99.90;;;;;;4177059;28;20473;-76
2021/09/25 07:15:44;;;;;;;13.18;8.20;;;16.50;99.90;;;;;;4175867;28;20087;-76
2021/09/25 07:17:45;;;;;;;12.43;7.80;;;16.50;99.90;;;;;;4174286;28;20078;-76
2021/09/25 07:19:45;;;;;;;12.85;8.23;;;16.60;99.90;;;;;;4173106;28;20037;-76
2021/09/25 07:21:46;;;;;;;13.93;8.32;;;16.60;99.90;;;;;;4173429;28;20061;-76
2021/09/25 07:23:47;;;;;;;15.00;8.70;;;16.60;99.90;;;;;;4168517;28;20029;-76
2021/09/25 07:25:47;;;;;;;16.50;9.48;;;16.60;99.90;;;;;;4173106;28;20032;-76
2021/09/25 07:27:49;;;;;;;15.05;9.30;;;16.60;99.90;;;;;;4172011;28;20075;-76
2021/09/25 07:29:51;;;;;;;12.48;7.50;;;16.60;99.90;;;;;;4173623;28;20590;-76
2021/09/25 07:31:51;;;;;;;11.07;7.47;;;16.70;99.90;;;;;;4172096;28;20127;-76
2021/09/25 07:33:52;;;;;;;13.00;7.43;;;16.70;99.90;;;;;;4173896;28;20049;-76
2021/09/25 07:35:53;;;;;;;14.60;8.70;;;16.70;99.90;;;;;;4172881;28;20361;-76
2021/09/25 07:37:53;;;;;;;14.57;8.52;;;16.70;99.90;;;;;;4171516;28;20406;-76
2021/09/25 07:39:54;;;;;;;18.17;8.55;;;16.80;99.90;;;;;;4173336;28;20481;-76
2021/09/25 07:41:54;;;;;;;13.05;7.53;;;16.80;99.90;;;;;;4170571;28;20157;-75
2021/09/25 07:43:55;;;;;;;14.32;8.13;;;16.80;99.90;;;;;;4173211;28;20087;-76
2021/09/25 07:45:56;;;;;;;14.20;8.43;;;16.80;99.90;;;;;;4171854;28;20045;-76
2021/09/25 07:47:57;;;;;;;13.93;8.55;;;16.80;99.90;;;;;;4171325;28;20037;-76
2021/09/25 07:49:58;;;;;;;14.90;7.72;;;16.80;99.90;;;;;;4170600;28;20125;-76
2021/09/25 07:51:58;;;;;;;13.60;8.65;;;16.90;99.90;;;;;;4168815;28;20041;-76
2021/09/25 07:53:59;;;;;;;12.35;7.00;;;16.90;99.90;;;;;;4172899;28;20029;-76
2021/09/25 07:56:00;;;;;;;13.55;8.05;;;16.90;99.90;;;;;;4170524;28;20029;-76
2021/09/25 07:58:00;;;;;;;12.05;7.50;;;16.90;99.90;;;;;;4169229;28;20041;-76
2021/09/25 08:00:02;;;;;;;11.32;7.40;;;17.00;99.90;;;;;;4172725;28;20112;-76
2021/09/25 08:02:03;;;;;;;11.87;7.33;;;17.00;99.90;;;;;;4172221;28;20059;-76
2021/09/25 08:04:04;;;;;;;12.45;7.60;;;17.00;99.90;;;;;;4175190;28;20036;-76
2021/09/25 08:06:05;;;;;;;10.98;7.25;;;17.00;99.90;;;;;;4172977;28;20413;-76
2021/09/25 08:08:06;;;;;;;15.90;8.30;;;17.00;99.90;;;;;;4170732;28;20413;-76
2021/09/25 08:10:09;;;;;;;12.70;7.78;;;17.10;99.90;;;;;;4171519;28;20029;-76
2021/09/25 08:12:09;;;;;;;14.23;8.20;;;17.00;99.90;;;;;;4170947;28;20037;-76
2021/09/25 08:14:10;;;;;;;15.30;7.80;;;17.10;99.90;;;;;;4172394;28;20516;-76
2021/09/25 08:16:11;;;;;;;12.35;7.53;;;17.10;99.90;;;;;;4173722;28;20033;-76
2021/09/25 08:18:11;;;;;;;13.52;8.27;;;17.10;99.90;;;;;;4169581;28;20040;-76
2021/09/25 08:20:15;;;;;;;12.80;7.57;;;17.10;99.90;;;;;;4169973;28;20041;-76
2021/09/25 08:22:16;;;;;;;10.02;6.70;;;17.10;99.90;;;;;;4171344;28;20041;-77
2021/09/25 08:24:16;;;;;;;10.23;7.20;;;17.20;99.90;;;;;;4171850;28;20095;-76
2021/09/25 08:26:17;;;;;;;11.48;7.20;;;17.20;99.90;;;;;;4171868;28;20044;-76
2021/09/25 08:28:18;;;;;;;15.68;7.85;;;17.20;99.90;;;;;;4164986;28;20128;-76
2021/09/25 08:30:19;;;;;;;12.00;7.75;;;17.20;99.90;;;;;;4182790;28;20121;-76
2021/09/25 08:32:20;;;;;;;13.88;7.60;;;17.20;99.90;;;;;;4170715;28;20581;-77
2021/09/25 08:34:20;;;;;;;11.90;7.32;;;17.20;99.90;;;;;;4170108;28;20037;-77
2021/09/25 08:36:21;;;;;;;13.25;7.60;;;17.20;99.90;;;;;;4168525;28;20079;-77
2021/09/25 08:38:22;;;;;;;13.48;7.43;;;17.20;99.90;;;;;;4169051;28;20451;-77
2021/09/25 08:40:23;;;;;;;10.10;6.65;;;17.30;99.90;;;;;;4169962;28;20684;-77
2021/09/25 08:42:23;;;;;;;10.32;6.32;;;17.30;99.90;;;;;;4169317;28;20659;-76
2021/09/25 08:44:24;;;;;;;13.95;8.52;;;17.30;99.90;;;;;;4168672;28;20036;-77
2021/09/25 08:46:25;;;;;;;10.35;7.10;;;17.40;99.90;;;;;;4171332;28;20045;-76
2021/09/25 08:48:27;;;;;;;9.93;6.55;;;17.40;99.90;;;;;;4170479;28;20098;-76
2021/09/25 08:50:28;;;;;;;10.80;6.50;;;17.40;99.90;;;;;;4164680;28;20037;-77
2021/09/25 08:52:29;;;;;;;9.77;6.25;;;17.50;99.90;;;;;;4170891;28;20057;-76
2021/09/25 08:54:30;;;;;;;10.13;6.82;;;17.50;99.90;;;;;;4170682;28;20480;-76
2021/09/25 08:56:31;;;;;;;10.02;6.93;;;17.50;99.90;;;;;;4167387;28;20072;-76
2021/09/25 08:58:31;;;;;;;12.02;6.78;;;17.60;99.90;;;;;;4168800;28;20033;-76
2021/09/25 09:00:38;;;;;;;11.55;7.03;;;17.60;99.90;;;;;;4167984;28;20138;-76
2021/09/25 09:02:39;;;;;;;11.00;6.78;;;17.60;99.90;;;;;;4168303;28;20455;-76
2021/09/25 09:04:54;;;;;;;16.23;7.78;;;17.60;99.90;;;;;;4168449;28;20098;-76
2021/09/25 09:06:54;;;;;;;12.63;7.15;;;17.60;99.90;;;;;;4152041;28;20025;-76
2021/09/25 09:09:09;;;;;;;13.25;7.13;;;17.70;99.90;;;;;;4169783;28;20483;-76
2021/09/25 09:11:10;;;;;;;13.23;6.97;;;17.60;99.90;;;;;;4168678;28;20377;-77
2021/09/25 09:13:10;;;;;;;9.65;6.25;;;17.60;99.90;;;;;;4182262;28;20051;-76
2021/09/25 09:15:11;;;;;;;10.63;6.78;;;17.70;99.90;;;;;;4173882;28;20061;-76
2021/09/25 09:17:16;;;;;;;9.30;6.20;;;17.70;99.90;;;;;;4173167;28;20045;-77
2021/09/25 09:19:19;;;;;;;8.95;5.28;;;17.80;99.90;;;;;;4170272;28;20129;-77
2021/09/25 09:21:25;;;;;;;10.63;6.32;;;17.80;99.90;;;;;;4171745;28;20033;-76
2021/09/25 09:23:25;;;;;;;10.98;7.00;;;17.80;99.90;;;;;;4172105;28;20041;-77
2021/09/25 09:25:26;;;;;;;9.73;7.00;;;17.90;99.90;;;;;;4179490;28;20499;-76
2021/09/25 09:27:28;;;;;;;9.90;7.47;;;17.90;99.90;;;;;;4166309;28;20137;-76
2021/09/25 09:29:33;;;;;;;13.47;7.70;;;17.90;99.90;;;;;;4152562;28;20497;-76
2021/09/25 09:31:37;;;;;;;10.20;6.50;;;17.90;99.90;;;;;;4166927;28;20252;-77
2021/09/25 09:33:40;;;;;;;9.98;6.03;;;17.90;99.90;;;;;;4168103;28;20393;-77
2021/09/25 09:35:41;;;;;;;11.50;6.18;;;17.90;99.90;;;;;;4167610;28;20037;-77
2021/09/25 09:37:44;;;;;;;9.93;6.38;;;18.00;99.90;;;;;;4167453;28;20384;-76
2021/09/25 09:40:02;;;;;;;8.63;5.53;;;18.00;99.90;;;;;;4169621;28;20106;-77
2021/09/25 09:42:03;;;;;;;9.13;6.00;;;18.00;99.90;;;;;;4166858;28;20043;-76
2021/09/25 09:44:07;;;;;;;8.35;5.38;;;18.10;99.90;;;;;;4167066;28;20099;-77
2021/09/25 09:46:07;;;;;;;7.30;5.28;;;18.10;99.90;;;;;;4168181;28;20065;-76
2021/09/25 09:48:09;;;;;;;8.15;5.72;;;18.20;99.90;;;;;;4170346;28;20028;-76
2021/09/25 09:50:10;;;;;;;7.50;4.93;;;18.20;99.90;;;;;;4169825;28;20149;-76
2021/09/25 09:52:15;;;;;;;9.90;5.90;;;18.30;99.90;;;;;;4169007;28;20485;-76
2021/09/25 09:54:17;;;;;;;10.95;6.28;;;18.30;99.90;;;;;;4168614;28;20184;-76
2021/09/25 09:56:24;;;;;;;8.90;6.05;;;18.30;99.90;;;;;;4167972;28;20396;-77
2021/09/25 09:58:30;;;;;;;8.27;5.57;;;18.30;99.90;;;;;;4167716;28;20200;-77
2021/09/25 10:00:31;;;;;;;11.32;7.00;;;18.40;99.90;;;;;;4169154;28;20064;-77
2021/09/25 10:02:32;;;;;;;9.48;5.88;;;18.40;99.90;;;;;;4169810;28;20025;-76
2021/09/25 10:04:34;;;;;;;7.47;5.00;;;18.40;99.90;;;;;;4168289;28;20025;-76
2021/09/25 10:06:38;;;;;;;6.65;4.57;;;18.50;99.90;;;;;;4169662;28;20115;-77
2021/09/25 10:08:40;;;;;;;7.40;5.15;;;18.50;99.90;;;;;;4169693;28;20033;-77
2021/09/25 10:10:41;;;;;;;10.98;6.57;;;18.50;99.90;;;;;;4169369;28;20028;-77
2021/09/25 10:12:42;;;;;;;12.93;6.40;;;18.50;99.90;;;;;;4169264;28;20488;-77
2021/09/25 10:14:45;;;;;;;7.35;5.10;;;18.50;99.90;;;;;;4167762;28;20042;-77
2021/09/25 10:16:48;;;;;;;8.77;5.60;;;18.60;99.90;;;;;;4168374;28;20037;-77
2021/09/25 10:18:50;;;;;;;8.80;5.60;;;18.60;99.90;;;;;;4168593;28;20524;-76
2021/09/25 10:20:52;;;;;;;7.03;5.07;;;18.70;99.90;;;;;;4167893;28;20150;-77
2021/09/25 10:22:53;;;;;;;6.78;4.85;;;18.70;99.90;;;;;;4168085;28;20492;-77
2021/09/25 10:24:56;;;;;;;8.40;5.82;;;18.70;99.90;;;;;;4164674;28;20071;-77
2021/09/25 10:27:00;;;;;;;10.82;6.22;;;18.80;99.90;;;;;;4164097;28;20029;-77
2021/09/25 10:29:05;;;;;;;9.07;5.60;;;18.80;99.90;;;;;;4168955;28;20508;-77